createdAt,value
2022-09-15T00:00:53.928Z,979.74
2022-09-15T00:01:54.021Z,979.77
2022-09-15T00:02:54.082Z,979.78
2022-09-15T00:03:54.174Z,979.81
2022-09-15T00:04:53.925Z,979.85
2022-09-15T00:05:53.898Z,979.91
2022-09-15T00:06:53.975Z,979.90
2022-09-15T00:07:53.919Z,979.96
2022-09-15T00:08:54.001Z,980.01
2022-09-15T00:09:53.882Z,979.99
2022-09-15T00:10:53.880Z,979.95
2022-09-15T00:11:53.854Z,979.97
2022-09-15T00:12:53.835Z,979.91
2022-09-15T00:13:53.848Z,979.87
2022-09-15T00:14:53.842Z,979.84
2022-09-15T00:15:53.816Z,979.84
2022-09-15T00:16:54.008Z,979.83
2022-09-15T00:17:53.809Z,979.85
2022-09-15T00:18:53.795Z,979.81
2022-09-15T00:19:53.821Z,979.82
2022-09-15T00:20:53.793Z,979.83
2022-09-15T00:21:53.778Z,979.87
2022-09-15T00:22:53.805Z,979.85
2022-09-15T00:23:53.769Z,979.85
2022-09-15T00:24:53.773Z,979.86
2022-09-15T00:25:53.756Z,979.87
2022-09-15T00:26:53.747Z,979.90
2022-09-15T00:27:53.740Z,979.88
2022-09-15T00:28:53.749Z,979.83
2022-09-15T00:29:53.726Z,979.84
2022-09-15T00:30:53.782Z,979.83
2022-09-15T00:31:53.721Z,979.79
2022-09-15T00:32:53.709Z,979.80
2022-09-15T00:33:53.701Z,979.84
2022-09-15T00:34:53.693Z,979.83
2022-09-15T00:35:53.709Z,979.87
2022-09-15T00:36:53.687Z,979.91
2022-09-15T00:37:53.685Z,979.89
2022-09-15T00:38:53.674Z,979.93
2022-09-15T00:39:53.685Z,979.92
2022-09-15T00:40:53.654Z,979.95
2022-09-15T00:41:53.646Z,979.96
2022-09-15T00:42:53.638Z,979.98
2022-09-15T00:43:53.640Z,979.98
2022-09-15T00:44:53.626Z,979.95
2022-09-15T00:45:53.677Z,979.94
2022-09-15T00:47:09.663Z,979.93
2022-09-15T00:47:53.636Z,979.96
2022-09-15T00:48:53.622Z,979.96
2022-09-15T00:49:58.226Z,980.00
2022-09-15T00:50:53.611Z,980.02
2022-09-15T00:51:53.698Z,980.06
2022-09-15T00:52:53.574Z,980.14
2022-09-15T00:53:53.573Z,980.19
2022-09-15T00:54:53.564Z,980.20
2022-09-15T00:55:53.560Z,980.17
2022-09-15T00:56:53.563Z,980.16
2022-09-15T00:57:53.595Z,980.13
2022-09-15T00:58:53.538Z,980.12
2022-09-15T00:59:53.541Z,980.09
2022-09-15T01:00:53.550Z,980.05
2022-09-15T01:01:53.576Z,980.03
2022-09-15T01:02:53.538Z,980.05
2022-09-15T01:03:53.511Z,980.07
2022-09-15T01:04:58.036Z,980.12
2022-09-15T01:05:53.500Z,980.14
2022-09-15T01:06:53.487Z,980.14
2022-09-15T01:07:53.496Z,980.12
2022-09-15T01:08:53.466Z,980.14
2022-09-15T01:09:53.461Z,980.13
2022-09-15T01:10:53.449Z,980.16
2022-09-15T01:11:53.451Z,980.13
2022-09-15T01:12:53.450Z,980.17
2022-09-15T01:13:53.466Z,980.15
2022-09-15T01:14:53.448Z,980.16
2022-09-15T01:15:53.418Z,980.17
2022-09-15T01:16:53.536Z,980.15
2022-09-15T01:17:53.414Z,980.19
2022-09-15T01:18:53.422Z,980.17
2022-09-15T01:19:53.395Z,980.21
2022-09-15T01:20:53.420Z,980.18
2022-09-15T01:21:58.095Z,980.19
2022-09-15T01:22:53.388Z,980.20
2022-09-15T01:23:53.400Z,980.20
2022-09-15T01:24:53.371Z,980.15
2022-09-15T01:25:53.365Z,980.15
2022-09-15T01:26:53.389Z,980.14
2022-09-15T01:27:53.357Z,980.16
2022-09-15T01:28:53.405Z,980.18
2022-09-15T01:29:53.331Z,980.18
2022-09-15T01:30:53.345Z,980.16
2022-09-15T01:31:53.416Z,980.19
2022-09-15T01:32:53.330Z,980.19
2022-09-15T01:33:53.302Z,980.19
2022-09-15T01:34:53.323Z,980.20
2022-09-15T01:35:53.300Z,980.18
2022-09-15T01:36:53.286Z,980.16
2022-09-15T01:37:53.275Z,980.17
2022-09-15T01:38:53.452Z,980.16
2022-09-15T01:39:53.802Z,980.17
2022-09-15T01:40:53.527Z,980.18
2022-09-15T01:41:53.472Z,980.15
2022-09-15T01:42:53.666Z,980.14
2022-09-15T01:43:53.505Z,980.16
2022-09-15T01:44:53.582Z,980.10
2022-09-15T01:45:53.567Z,980.05
2022-09-15T01:46:53.427Z,980.07
2022-09-15T01:47:53.446Z,980.04
2022-09-15T01:48:53.608Z,980.02
2022-09-15T01:49:53.606Z,980.08
2022-09-15T01:50:53.568Z,980.10
2022-09-15T01:51:53.380Z,980.07
2022-09-15T01:52:53.390Z,980.08
2022-09-15T01:53:53.418Z,980.03
2022-09-15T01:54:53.478Z,980.06
2022-09-15T01:55:53.512Z,980.03
2022-09-15T01:56:53.386Z,979.98
2022-09-15T01:57:53.419Z,979.99
2022-09-15T01:58:53.410Z,979.96
2022-09-15T01:59:53.542Z,979.94
2022-09-15T02:00:53.199Z,979.91
2022-09-15T02:01:53.442Z,979.90
2022-09-15T02:02:53.324Z,979.91
2022-09-15T02:03:53.100Z,979.91
2022-09-15T02:04:53.620Z,979.93
2022-09-15T02:05:53.495Z,979.92
2022-09-15T02:06:53.317Z,979.95
2022-09-15T02:07:53.365Z,979.98
2022-09-15T02:08:53.325Z,979.98
2022-09-15T02:09:53.385Z,979.97
2022-09-15T02:10:53.281Z,979.96
2022-09-15T02:11:53.366Z,979.96
2022-09-15T02:12:53.277Z,979.98
2022-09-15T02:13:53.315Z,979.99
2022-09-15T02:14:53.514Z,979.99
2022-09-15T02:15:53.373Z,979.98
2022-09-15T02:16:53.247Z,980.01
2022-09-15T02:17:53.796Z,979.96
2022-09-15T02:18:53.291Z,979.97
2022-09-15T02:19:53.060Z,980.03
2022-09-15T02:20:53.274Z,980.08
2022-09-15T02:21:53.450Z,980.06
2022-09-15T02:22:53.335Z,980.08
2022-09-15T02:23:53.270Z,980.05
2022-09-15T02:24:53.355Z,980.08
2022-09-15T02:25:53.475Z,980.05
2022-09-15T02:26:53.255Z,980.05
2022-09-15T02:27:53.382Z,980.07
2022-09-15T02:28:53.077Z,980.04
2022-09-15T02:29:53.233Z,980.02
2022-09-15T02:30:53.315Z,980.03
2022-09-15T02:31:53.392Z,980.01
2022-09-15T02:32:53.210Z,980.01
2022-09-15T02:33:53.295Z,979.96
2022-09-15T02:34:53.210Z,980.02
2022-09-15T02:35:53.162Z,979.98
2022-09-15T02:36:53.128Z,980.02
2022-09-15T02:37:53.427Z,980.00
2022-09-15T02:38:53.258Z,980.02
2022-09-15T02:39:52.958Z,980.05
2022-09-15T02:40:53.098Z,980.01
2022-09-15T02:41:53.410Z,979.96
2022-09-15T02:42:53.099Z,979.98
2022-09-15T02:43:53.125Z,979.95
2022-09-15T02:44:53.140Z,979.94
2022-09-15T02:45:53.200Z,979.90
2022-09-15T02:46:53.210Z,979.93
2022-09-15T02:47:53.228Z,979.94
2022-09-15T02:48:53.057Z,979.94
2022-09-15T02:49:53.050Z,979.95
2022-09-15T02:50:53.167Z,979.93
2022-09-15T02:51:53.355Z,979.91
2022-09-15T02:52:53.042Z,979.98
2022-09-15T02:53:53.176Z,979.98
2022-09-15T02:54:53.140Z,979.98
2022-09-15T02:55:53.113Z,979.95
2022-09-15T02:56:53.347Z,979.96
2022-09-15T02:57:52.995Z,979.96
2022-09-15T02:58:53.211Z,979.95
2022-09-15T02:59:53.063Z,979.97
2022-09-15T03:00:53.045Z,979.99
2022-09-15T03:01:53.123Z,979.96
2022-09-15T03:02:53.236Z,979.94
2022-09-15T03:03:53.078Z,979.94
2022-09-15T03:04:53.057Z,979.95
2022-09-15T03:05:53.117Z,979.97
2022-09-15T03:06:53.055Z,979.97
2022-09-15T03:07:53.156Z,979.95
2022-09-15T03:08:52.962Z,979.89
2022-09-15T03:09:52.722Z,979.93
2022-09-15T03:10:53.197Z,979.98
2022-09-15T03:11:52.922Z,979.95
2022-09-15T03:12:53.050Z,979.92
2022-09-15T03:13:52.677Z,979.89
2022-09-15T03:14:53.130Z,979.91
2022-09-15T03:15:53.057Z,979.90
2022-09-15T03:16:53.028Z,979.87
2022-09-15T03:17:52.612Z,979.89
2022-09-15T03:18:53.179Z,979.88
2022-09-15T03:19:52.954Z,979.88
2022-09-15T03:20:52.666Z,979.89
2022-09-15T03:21:52.876Z,979.91
2022-09-15T03:22:53.163Z,979.89
2022-09-15T03:23:52.817Z,979.93
2022-09-15T03:24:52.966Z,979.92
2022-09-15T03:25:52.778Z,979.93
2022-09-15T03:26:52.920Z,979.92
2022-09-15T03:27:52.830Z,979.89
2022-09-15T03:28:53.109Z,979.88
2022-09-15T03:29:52.915Z,979.91
2022-09-15T03:30:52.798Z,979.90
2022-09-15T03:31:52.890Z,979.92
2022-09-15T03:32:52.988Z,979.91
2022-09-15T03:33:52.757Z,979.93
2022-09-15T03:34:57.679Z,979.95
2022-09-15T03:35:52.840Z,979.94
2022-09-15T03:36:52.831Z,979.94
2022-09-15T03:37:53.021Z,980.01
2022-09-15T03:38:52.561Z,979.96
2022-09-15T03:39:52.911Z,979.97
2022-09-15T03:40:52.738Z,979.99
2022-09-15T03:41:52.721Z,979.98
2022-09-15T03:42:52.843Z,980.02
2022-09-15T03:43:53.162Z,980.02
2022-09-15T03:44:52.730Z,980.01
2022-09-15T03:45:52.885Z,980.00
2022-09-15T03:46:52.768Z,979.99
2022-09-15T03:47:52.993Z,980.04
2022-09-15T03:48:52.731Z,980.03
2022-09-15T03:49:52.762Z,980.03
2022-09-15T03:50:52.480Z,980.00
2022-09-15T03:51:52.663Z,980.04
2022-09-15T03:52:56.814Z,980.01
2022-09-15T03:53:52.967Z,979.98
2022-09-15T03:54:52.658Z,979.96
2022-09-15T03:55:52.561Z,979.95
2022-09-15T03:56:52.593Z,979.92
2022-09-15T03:57:52.603Z,979.95
2022-09-15T03:58:52.857Z,979.95
2022-09-15T03:59:52.614Z,979.95
2022-09-15T04:00:52.796Z,979.94
2022-09-15T04:01:52.584Z,979.92
2022-09-15T04:02:52.599Z,979.95
2022-09-15T04:03:52.792Z,979.91
2022-09-15T04:04:52.573Z,979.95
2022-09-15T04:05:52.587Z,979.95
2022-09-15T04:06:52.653Z,979.93
2022-09-15T04:07:52.603Z,979.93
2022-09-15T04:08:52.709Z,979.93
2022-09-15T04:09:52.587Z,979.94
2022-09-15T04:10:52.459Z,979.93
2022-09-15T04:11:52.476Z,979.92
2022-09-15T04:12:52.675Z,979.89
2022-09-15T04:13:52.636Z,979.97
2022-09-15T04:14:52.444Z,979.96
2022-09-15T04:15:52.466Z,979.97
2022-09-15T04:16:52.389Z,979.99
2022-09-15T04:17:52.835Z,979.95
2022-09-15T04:18:52.402Z,979.99
2022-09-15T04:19:52.625Z,979.95
2022-09-15T04:20:52.491Z,979.96
2022-09-15T04:21:52.448Z,979.97
2022-09-15T04:22:52.477Z,979.94
2022-09-15T04:23:52.541Z,979.96
2022-09-15T04:24:52.427Z,979.95
2022-09-15T04:25:52.269Z,979.98
2022-09-15T04:26:52.557Z,980.01
2022-09-15T04:27:52.126Z,980.05
2022-09-15T04:28:52.131Z,980.03
2022-09-15T04:29:52.114Z,980.06
2022-09-15T04:30:52.134Z,980.07
2022-09-15T04:31:52.168Z,980.11
2022-09-15T04:32:52.086Z,980.10
2022-09-15T04:33:52.100Z,980.10
2022-09-15T04:34:52.071Z,980.13
2022-09-15T04:35:52.101Z,980.14
2022-09-15T04:36:52.074Z,980.14
2022-09-15T04:37:52.053Z,980.16
2022-09-15T04:38:52.286Z,980.13
2022-09-15T04:39:52.154Z,980.19
2022-09-15T04:40:52.038Z,980.19
2022-09-15T04:41:52.031Z,980.15
2022-09-15T04:42:52.062Z,980.19
2022-09-15T04:43:52.013Z,980.19
2022-09-15T04:44:52.023Z,980.21
2022-09-15T04:45:52.027Z,980.15
2022-09-15T04:46:52.095Z,980.17
2022-09-15T04:47:51.991Z,980.18
2022-09-15T04:48:51.981Z,980.19
2022-09-15T04:49:52.012Z,980.27
2022-09-15T04:50:51.978Z,980.27
2022-09-15T04:51:52.009Z,980.27
2022-09-15T04:52:51.974Z,980.27
2022-09-15T04:53:52.261Z,980.25
2022-09-15T04:54:51.948Z,980.27
2022-09-15T04:55:51.949Z,980.31
2022-09-15T04:56:51.944Z,980.26
2022-09-15T04:57:51.967Z,980.27
2022-09-15T04:58:51.919Z,980.30
2022-09-15T04:59:51.931Z,980.27
2022-09-15T05:00:51.953Z,980.31
2022-09-15T05:01:52.142Z,980.31
2022-09-15T05:02:51.912Z,980.32
2022-09-15T05:03:51.947Z,980.34
2022-09-15T05:04:51.863Z,980.36
2022-09-15T05:05:51.858Z,980.33
2022-09-15T05:06:51.853Z,980.35
2022-09-15T05:07:51.877Z,980.38
2022-09-15T05:08:51.941Z,980.32
2022-09-15T05:09:51.882Z,980.34
2022-09-15T05:10:51.877Z,980.31
2022-09-15T05:11:51.843Z,980.34
2022-09-15T05:12:51.813Z,980.32
2022-09-15T05:13:52.166Z,980.34
2022-09-15T05:14:51.799Z,980.35
2022-09-15T05:15:51.865Z,980.35
2022-09-15T05:16:51.795Z,980.35
2022-09-15T05:17:51.799Z,980.33
2022-09-15T05:18:51.787Z,980.34
2022-09-15T05:19:51.762Z,980.34
2022-09-15T05:20:51.834Z,980.32
2022-09-15T05:21:51.786Z,980.33
2022-09-15T05:22:51.786Z,980.38
2022-09-15T05:23:52.158Z,980.38
2022-09-15T05:24:51.752Z,980.41
2022-09-15T05:25:51.759Z,980.38
2022-09-15T05:26:51.948Z,980.43
2022-09-15T05:27:51.733Z,980.44
2022-09-15T05:28:51.713Z,980.44
2022-09-15T05:30:04.348Z,980.43
2022-09-15T05:30:51.923Z,980.45
2022-09-15T05:31:51.765Z,980.46
2022-09-15T05:32:51.689Z,980.38
2022-09-15T05:33:51.686Z,980.39
2022-09-15T05:34:51.916Z,980.35
2022-09-15T05:35:51.800Z,980.37
2022-09-15T05:36:51.861Z,980.38
2022-09-15T05:37:51.663Z,980.34
2022-09-15T05:38:51.715Z,980.33
2022-09-15T05:39:51.736Z,980.38
2022-09-15T05:40:51.665Z,980.37
2022-09-15T05:41:51.607Z,980.36
2022-09-15T05:42:51.604Z,980.35
2022-09-15T05:43:51.615Z,980.38
2022-09-15T05:44:51.600Z,980.36
2022-09-15T05:45:51.627Z,980.36
2022-09-15T05:46:51.653Z,980.38
2022-09-15T05:47:51.577Z,980.37
2022-09-15T05:48:51.579Z,980.39
2022-09-15T05:49:51.554Z,980.39
2022-09-15T05:50:51.542Z,980.41
2022-09-15T05:51:51.568Z,980.39
2022-09-15T05:52:51.523Z,980.39
2022-09-15T05:53:51.812Z,980.44
2022-09-15T05:54:54.662Z,980.41
2022-09-15T05:55:51.549Z,980.42
2022-09-15T05:56:51.543Z,980.41
2022-09-15T05:57:51.545Z,980.45
2022-09-15T05:58:51.511Z,980.44
2022-09-15T05:59:51.505Z,980.42
2022-09-15T06:00:51.485Z,980.45
2022-09-15T06:01:51.561Z,980.45
2022-09-15T06:02:51.515Z,980.43
2022-09-15T06:03:51.449Z,980.40
2022-09-15T06:04:51.493Z,980.45
2022-09-15T06:05:51.641Z,980.44
2022-09-15T06:06:51.441Z,980.45
2022-09-15T06:07:51.410Z,980.43
2022-09-15T06:08:56.821Z,980.46
2022-09-15T06:09:51.429Z,980.50
2022-09-15T06:10:51.405Z,980.48
2022-09-15T06:11:51.460Z,980.50
2022-09-15T06:12:51.414Z,980.50
2022-09-15T06:13:51.406Z,980.51
2022-09-15T06:14:51.365Z,980.56
2022-09-15T06:15:51.395Z,980.55
2022-09-15T06:16:51.359Z,980.56
2022-09-15T06:17:51.360Z,980.58
2022-09-15T06:18:51.482Z,980.59
2022-09-15T06:19:51.386Z,980.63
2022-09-15T06:20:51.370Z,980.63
2022-09-15T06:21:51.365Z,980.65
2022-09-15T06:22:51.332Z,980.65
2022-09-15T06:23:51.346Z,980.68
2022-09-15T06:24:51.340Z,980.67
2022-09-15T06:25:51.312Z,980.67
2022-09-15T06:26:51.289Z,980.68
2022-09-15T06:27:51.341Z,980.66
2022-09-15T06:28:51.284Z,980.66
2022-09-15T06:29:51.256Z,980.67
2022-09-15T06:30:51.262Z,980.69
2022-09-15T06:31:51.308Z,980.63
2022-09-15T06:32:51.253Z,980.66
2022-09-15T06:33:51.542Z,980.68
2022-09-15T06:34:51.274Z,980.67
2022-09-15T06:35:51.216Z,980.72
2022-09-15T06:36:51.244Z,980.75
2022-09-15T06:37:51.229Z,980.76
2022-09-15T06:38:51.201Z,980.75
2022-09-15T06:39:51.252Z,980.77
2022-09-15T06:40:51.188Z,980.78
2022-09-15T06:42:02.375Z,980.81
2022-09-15T06:42:51.165Z,980.80
2022-09-15T06:43:51.405Z,980.84
2022-09-15T06:44:51.170Z,980.85
2022-09-15T06:45:51.288Z,980.85
2022-09-15T06:46:51.166Z,980.89
2022-09-15T06:48:07.422Z,980.88
2022-09-15T06:48:51.141Z,980.90
2022-09-15T06:49:51.128Z,980.89
2022-09-15T06:50:51.126Z,980.88
2022-09-15T06:51:51.122Z,980.90
2022-09-15T06:52:51.115Z,980.87
2022-09-15T06:53:51.101Z,980.88
2022-09-15T06:54:51.090Z,980.90
2022-09-15T06:55:51.082Z,980.91
2022-09-15T06:56:51.098Z,980.87
2022-09-15T06:57:51.083Z,980.91
2022-09-15T06:58:51.075Z,980.89
2022-09-15T06:59:51.129Z,980.88
2022-09-15T07:00:51.075Z,980.87
2022-09-15T07:01:51.098Z,980.88
2022-09-15T07:02:51.161Z,980.83
2022-09-15T07:03:51.036Z,980.89
2022-09-15T07:04:51.019Z,980.87
2022-09-15T07:05:51.050Z,980.92
2022-09-15T07:06:51.008Z,980.91
2022-09-15T07:07:51.015Z,980.90
2022-09-15T07:08:51.124Z,980.88
2022-09-15T07:09:50.997Z,980.93
2022-09-15T07:10:50.986Z,980.93
2022-09-15T07:11:50.988Z,980.91
2022-09-15T07:12:50.962Z,980.93
2022-09-15T07:13:50.976Z,980.96
2022-09-15T07:14:50.965Z,980.96
2022-09-15T07:15:51.050Z,980.93
2022-09-15T07:16:51.051Z,980.94
2022-09-15T07:17:50.944Z,980.94
2022-09-15T07:18:50.932Z,980.93
2022-09-15T07:19:50.926Z,980.97
2022-09-15T07:20:50.912Z,981.03
2022-09-15T07:21:50.902Z,981.04
2022-09-15T07:22:50.902Z,981.09
2022-09-15T07:23:50.935Z,981.07
2022-09-15T07:24:50.891Z,981.07
2022-09-15T07:25:50.881Z,981.14
2022-09-15T07:26:51.072Z,981.15
2022-09-15T07:27:50.877Z,981.15
2022-09-15T07:28:50.857Z,981.20
2022-09-15T07:29:50.861Z,981.21
2022-09-15T07:30:50.841Z,981.20
2022-09-15T07:31:50.943Z,981.23
2022-09-15T07:32:50.855Z,981.22
2022-09-15T07:33:50.909Z,981.25
2022-09-15T07:34:50.817Z,981.25
2022-09-15T07:35:50.835Z,981.30
2022-09-15T07:36:50.821Z,981.29
2022-09-15T07:37:50.792Z,981.35
2022-09-15T07:38:50.785Z,981.39
2022-09-15T07:39:50.830Z,981.42
2022-09-15T07:40:50.778Z,981.40
2022-09-15T07:41:50.806Z,981.45
2022-09-15T07:42:50.771Z,981.47
2022-09-15T07:43:50.755Z,981.48
2022-09-15T07:44:50.754Z,981.50
2022-09-15T07:45:50.749Z,981.52
2022-09-15T07:46:50.754Z,981.53
2022-09-15T07:47:50.734Z,981.56
2022-09-15T07:48:50.714Z,981.54
2022-09-15T07:49:50.713Z,981.53
2022-09-15T07:50:50.728Z,981.53
2022-09-15T07:51:50.708Z,981.55
2022-09-15T07:52:50.704Z,981.57
2022-09-15T07:53:50.687Z,981.54
2022-09-15T07:54:50.690Z,981.56
2022-09-15T07:55:50.669Z,981.56
2022-09-15T07:56:50.670Z,981.57
2022-09-15T07:57:50.665Z,981.58
2022-09-15T07:58:50.651Z,981.59
2022-09-15T07:59:50.643Z,981.59
2022-09-15T08:00:50.699Z,981.61
2022-09-15T08:01:50.693Z,981.62
2022-09-15T08:02:50.619Z,981.61
2022-09-15T08:03:50.653Z,981.66
2022-09-15T08:04:50.617Z,981.67
2022-09-15T08:05:50.598Z,981.67
2022-09-15T08:06:50.666Z,981.64
2022-09-15T08:07:50.600Z,981.68
2022-09-15T08:08:50.583Z,981.69
2022-09-15T08:09:50.578Z,981.70
2022-09-15T08:10:50.566Z,981.70
2022-09-15T08:11:50.578Z,981.66
2022-09-15T08:12:50.581Z,981.64
2022-09-15T08:13:50.556Z,981.68
2022-09-15T08:14:50.536Z,981.68
2022-09-15T08:15:50.585Z,981.72
2022-09-15T08:16:50.517Z,981.73
2022-09-15T08:17:50.517Z,981.72
2022-09-15T08:18:50.507Z,981.72
2022-09-15T08:19:50.527Z,981.80
2022-09-15T08:20:50.492Z,981.79
2022-09-15T08:21:50.503Z,981.79
2022-09-15T08:22:50.495Z,981.78
2022-09-15T08:23:50.482Z,981.78
2022-09-15T08:24:50.487Z,981.77
2022-09-15T08:25:50.489Z,981.74
2022-09-15T08:26:50.489Z,981.70
2022-09-15T08:27:50.458Z,981.69
2022-09-15T08:28:50.538Z,981.69
2022-09-15T08:29:50.451Z,981.68
2022-09-15T08:30:50.485Z,981.68
2022-09-15T08:31:50.497Z,981.74
2022-09-15T08:32:50.428Z,981.73
2022-09-15T08:33:50.430Z,981.68
2022-09-15T08:34:50.441Z,981.71
2022-09-15T08:35:50.446Z,981.69
2022-09-15T08:36:50.391Z,981.71
2022-09-15T08:37:50.401Z,981.70
2022-09-15T08:38:50.392Z,981.76
2022-09-15T08:39:50.459Z,981.76
2022-09-15T08:40:50.392Z,981.77
2022-09-15T08:41:50.392Z,981.79
2022-09-15T08:42:50.354Z,981.83
2022-09-15T08:43:50.385Z,981.83
2022-09-15T08:44:50.350Z,981.81
2022-09-15T08:45:50.358Z,981.84
2022-09-15T08:46:50.459Z,981.85
2022-09-15T08:47:50.322Z,981.86
2022-09-15T08:48:50.641Z,981.86
2022-09-15T08:49:52.437Z,981.87
2022-09-15T08:50:50.317Z,981.85
2022-09-15T08:51:50.418Z,981.85
2022-09-15T08:52:50.321Z,981.86
2022-09-15T08:53:50.323Z,981.87
2022-09-15T08:54:50.314Z,981.84
2022-09-15T08:55:50.307Z,981.81
2022-09-15T08:56:50.291Z,981.85
2022-09-15T08:57:50.285Z,981.83
2022-09-15T08:58:50.717Z,981.83
2022-09-15T08:59:50.272Z,981.81
2022-09-15T09:00:50.263Z,981.79
2022-09-15T09:01:50.312Z,981.83
2022-09-15T09:02:50.344Z,981.89
2022-09-15T09:03:50.261Z,981.87
2022-09-15T09:04:50.253Z,981.86
2022-09-15T09:05:50.252Z,981.91
2022-09-15T09:06:50.241Z,981.85
2022-09-15T09:07:50.248Z,981.86
2022-09-15T09:08:50.347Z,981.87
2022-09-15T09:09:50.233Z,981.85
2022-09-15T09:10:50.385Z,981.86
2022-09-15T09:11:50.562Z,981.82
2022-09-15T09:12:50.237Z,981.87
2022-09-15T09:13:50.216Z,981.88
2022-09-15T09:14:50.210Z,981.89
2022-09-15T09:15:50.278Z,981.91
2022-09-15T09:16:50.205Z,981.90
2022-09-15T09:17:50.345Z,981.94
2022-09-15T09:18:50.300Z,981.90
2022-09-15T09:19:50.195Z,981.90
2022-09-15T09:20:50.206Z,981.91
2022-09-15T09:21:50.192Z,981.88
2022-09-15T09:22:50.185Z,981.88
2022-09-15T09:23:50.286Z,981.89
2022-09-15T09:24:50.182Z,981.94
2022-09-15T09:25:50.170Z,981.91
2022-09-15T09:26:50.185Z,981.90
2022-09-15T09:27:50.152Z,981.88
2022-09-15T09:28:50.193Z,981.94
2022-09-15T09:29:50.177Z,981.91
2022-09-15T09:30:50.223Z,981.92
2022-09-15T09:31:50.319Z,981.93
2022-09-15T09:32:50.132Z,981.96
2022-09-15T09:33:50.307Z,981.94
2022-09-15T09:34:50.182Z,981.89
2022-09-15T09:35:50.127Z,981.89
2022-09-15T09:36:50.123Z,981.88
2022-09-15T09:37:50.130Z,981.88
2022-09-15T09:38:50.112Z,981.86
2022-09-15T09:39:50.179Z,981.84
2022-09-15T09:40:50.107Z,981.82
2022-09-15T09:41:50.101Z,981.83
2022-09-15T09:42:50.097Z,981.82
2022-09-15T09:43:50.092Z,981.82
2022-09-15T09:44:50.137Z,981.87
2022-09-15T09:45:50.147Z,981.91
2022-09-15T09:46:50.144Z,981.87
2022-09-15T09:47:50.111Z,981.88
2022-09-15T09:48:50.066Z,981.91
2022-09-15T09:49:50.071Z,981.91
2022-09-15T09:50:50.060Z,981.88
2022-09-15T09:51:50.063Z,981.95
2022-09-15T09:52:50.068Z,981.95
2022-09-15T09:53:50.043Z,981.96
2022-09-15T09:54:50.077Z,981.90
2022-09-15T09:55:50.054Z,981.93
2022-09-15T09:56:50.052Z,981.92
2022-09-15T09:57:50.050Z,981.96
2022-09-15T09:58:50.047Z,981.94
2022-09-15T09:59:50.023Z,981.96
2022-09-15T10:00:50.029Z,981.96
2022-09-15T10:01:50.085Z,981.99
2022-09-15T10:02:50.007Z,981.98
2022-09-15T10:03:50.006Z,981.91
2022-09-15T10:04:50.071Z,981.92
2022-09-15T10:05:50.038Z,981.91
2022-09-15T10:06:50.013Z,981.86
2022-09-15T10:07:50.294Z,981.90
2022-09-15T10:08:50.506Z,981.93
2022-09-15T10:09:50.267Z,981.92
2022-09-15T10:10:50.295Z,981.90
2022-09-15T10:11:50.000Z,981.94
2022-09-15T10:12:49.995Z,981.89
2022-09-15T10:13:49.964Z,981.86
2022-09-15T10:14:51.982Z,981.84
2022-09-15T10:15:49.956Z,981.80
2022-09-15T10:16:49.997Z,981.79
2022-09-15T10:17:49.949Z,981.84
2022-09-15T10:18:54.262Z,981.73
2022-09-15T10:19:49.945Z,981.75
2022-09-15T10:20:50.445Z,981.69
2022-09-15T10:21:50.358Z,981.71
2022-09-15T10:22:49.967Z,981.73
2022-09-15T10:23:49.944Z,981.77
2022-09-15T10:24:49.950Z,981.72
2022-09-15T10:25:59.130Z,981.77
2022-09-15T10:26:49.933Z,981.73
2022-09-15T10:27:49.923Z,981.72
2022-09-15T10:28:49.914Z,981.66
2022-09-15T10:29:49.918Z,981.73
2022-09-15T10:30:49.943Z,981.71
2022-09-15T10:31:49.978Z,981.70
2022-09-15T10:32:49.893Z,981.70
2022-09-15T10:33:49.905Z,981.71
2022-09-15T10:34:49.885Z,981.68
2022-09-15T10:35:49.878Z,981.75
2022-09-15T10:36:49.874Z,981.72
2022-09-15T10:37:49.866Z,981.70
2022-09-15T10:38:49.865Z,981.70
2022-09-15T10:39:49.890Z,981.68
2022-09-15T10:40:49.897Z,981.71
2022-09-15T10:41:49.861Z,981.76
2022-09-15T10:42:49.866Z,981.72
2022-09-15T10:43:49.870Z,981.70
2022-09-15T10:44:49.834Z,981.69
2022-09-15T10:45:49.925Z,981.74
2022-09-15T10:46:49.825Z,981.72
2022-09-15T10:47:49.837Z,981.67
2022-09-15T10:48:49.811Z,981.71
2022-09-15T10:49:49.835Z,981.69
2022-09-15T10:50:49.843Z,981.69
2022-09-15T10:51:49.812Z,981.72
2022-09-15T10:52:49.804Z,981.71
2022-09-15T10:53:49.810Z,981.72
2022-09-15T10:54:49.819Z,981.71
2022-09-15T10:55:53.098Z,981.70
2022-09-15T10:56:49.774Z,981.74
2022-09-15T10:57:49.768Z,981.75
2022-09-15T10:58:49.824Z,981.75
2022-09-15T10:59:49.797Z,981.77
2022-09-15T11:00:49.799Z,981.77
2022-09-15T11:01:49.792Z,981.73
2022-09-15T11:02:49.763Z,981.74
2022-09-15T11:03:49.766Z,981.75
2022-09-15T11:04:49.742Z,981.73
2022-09-15T11:05:49.752Z,981.72
2022-09-15T11:06:49.743Z,981.70
2022-09-15T11:07:49.733Z,981.73
2022-09-15T11:08:49.721Z,981.73
2022-09-15T11:09:49.707Z,981.71
2022-09-15T11:10:49.719Z,981.73
2022-09-15T11:11:49.708Z,981.70
2022-09-15T11:12:49.699Z,981.68
2022-09-15T11:13:49.689Z,981.69
2022-09-15T11:14:49.707Z,981.73
2022-09-15T11:15:49.796Z,981.65
2022-09-15T11:16:49.708Z,981.66
2022-09-15T11:17:49.700Z,981.68
2022-09-15T11:18:49.700Z,981.65
2022-09-15T11:19:49.656Z,981.66
2022-09-15T11:20:49.665Z,981.69
2022-09-15T11:21:49.649Z,981.64
2022-09-15T11:22:49.902Z,981.63
2022-09-15T11:23:49.654Z,981.65
2022-09-15T11:24:49.681Z,981.68
2022-09-15T11:25:49.627Z,981.66
2022-09-15T11:26:49.732Z,981.68
2022-09-15T11:27:49.623Z,981.70
2022-09-15T11:28:49.782Z,981.70
2022-09-15T11:29:49.616Z,981.66
2022-09-15T11:30:49.661Z,981.67
2022-09-15T11:31:49.745Z,981.67
2022-09-15T11:32:52.916Z,981.68
2022-09-15T11:33:49.957Z,981.67
2022-09-15T11:34:49.737Z,981.66
2022-09-15T11:35:49.595Z,981.73
2022-09-15T11:36:49.583Z,981.71
2022-09-15T11:37:49.585Z,981.72
2022-09-15T11:38:49.571Z,981.76
2022-09-15T11:39:49.592Z,981.77
2022-09-15T11:40:49.579Z,981.73
2022-09-15T11:41:49.572Z,981.76
2022-09-15T11:42:49.551Z,981.80
2022-09-15T11:43:49.539Z,981.78
2022-09-15T11:44:49.534Z,981.76
2022-09-15T11:45:49.586Z,981.79
2022-09-15T11:46:49.568Z,981.82
2022-09-15T11:47:49.548Z,981.79
2022-09-15T11:48:49.740Z,981.78
2022-09-15T11:49:49.511Z,981.81
2022-09-15T11:50:49.513Z,981.83
2022-09-15T11:51:49.513Z,981.84
2022-09-15T11:52:49.490Z,981.79
2022-09-15T11:53:49.489Z,981.78
2022-09-15T11:54:49.683Z,981.74
2022-09-15T11:55:49.501Z,981.73
2022-09-15T11:56:49.470Z,981.73
2022-09-15T11:57:49.508Z,981.72
2022-09-15T11:58:49.485Z,981.77
2022-09-15T11:59:49.458Z,981.72
2022-09-15T12:00:49.442Z,981.72
2022-09-15T12:01:49.517Z,981.70
2022-09-15T12:02:49.514Z,981.76
2022-09-15T12:03:49.470Z,981.72
2022-09-15T12:04:49.440Z,981.75
2022-09-15T12:05:49.432Z,981.73
2022-09-15T12:06:49.598Z,981.77
2022-09-15T12:07:49.409Z,981.74
2022-09-15T12:08:49.428Z,981.71
2022-09-15T12:09:49.415Z,981.73
2022-09-15T12:10:49.428Z,981.74
2022-09-15T12:11:49.391Z,981.72
2022-09-15T12:12:49.386Z,981.70
2022-09-15T12:13:49.377Z,981.69
2022-09-15T12:14:49.379Z,981.70
2022-09-15T12:15:49.459Z,981.77
2022-09-15T12:16:49.365Z,981.77
2022-09-15T12:17:49.370Z,981.76
2022-09-15T12:18:49.350Z,981.72
2022-09-15T12:19:49.372Z,981.72
2022-09-15T12:20:49.348Z,981.72
2022-09-15T12:21:49.361Z,981.72
2022-09-15T12:22:49.380Z,981.74
2022-09-15T12:23:49.340Z,981.74
2022-09-15T12:24:49.338Z,981.77
2022-09-15T12:25:49.324Z,981.76
2022-09-15T12:26:49.338Z,981.77
2022-09-15T12:27:49.316Z,981.76
2022-09-15T12:28:49.309Z,981.73